Data for 03/01/2006

Time Sea-Level Adjusted Pressure Absolute Pressure Temperature Relative Humidity Dew Point   
(mb) (inHg) (mb) (inHg) (C) (F) (%) (C) (F)
00:05 1010 29.83 840 24.81 3.8 38.9 47 -6.5 20.3
00:10 1011 29.85 840 24.81 3.8 38.8 47 -6.5 20.3
00:15 1011 29.85 840 24.81 3.6 38.5 48 -6.5 20.3
00:20 1011 29.85 840 24.81 3.5 38.4 47 -6.8 19.7
00:25 1011 29.85 840 24.81 3.5 38.3 48 -6.6 20.1
00:30 1011 29.85 840 24.81 3.5 38.3 48 -6.6 20.2
00:35 1011 29.85 840 24.81 3.4 38.2 48 -6.5 20.3
00:40 1011 29.85 840 24.81 3.4 38.1 48 -6.6 20.1
00:45 1011 29.85 840 24.81 3.4 38.1 48 -6.6 20.1
00:50 1011 29.85 840 24.81 3.5 38.2 47 -6.7 20
00:55 1011 29.85 840 24.81 3.4 38.1 49 -6.4 20.5
01:00 1011 29.85 840 24.81 3.3 37.9 49 -6.5 20.2
01:05 1011 29.85 840 24.81 3.3 38 48 -6.6 20.2
01:10 1011 29.85 840 24.81 3.3 37.9 49 -6.5 20.4
01:15 1011 29.85 840 24.81 3.1 37.7 49 -6.6 20.1
01:20 1011 29.85 840 24.81 3.1 37.7 49 -6.5 20.3
01:25 1011 29.85 841 24.83 3 37.5 51 -6.1 21.1
01:30 1011 29.85 841 24.83 2.8 37.1 54 -5.5 22.2
01:35 1011 29.85 841 24.83 2.5 36.5 57 -5.1 22.9
01:40 1012 29.88 841 24.83 2.3 36.1 60 -4.8 23.4
01:45 1012 29.88 841 24.83 2.2 35.9 61 -4.5 23.9
01:50 1012 29.88 841 24.83 2 35.7 64 -4.1 24.6
01:55 1012 29.88 841 24.83 1.9 35.5 63 -4.3 24.3
02:00 1012 29.88 841 24.83 1.9 35.4 64 -4.1 24.5
02:05 1012 29.88 841 24.83 1.9 35.5 62 -4.5 23.9
02:10 1012 29.88 841 24.83 2 35.6 62 -4.4 24
02:15 1012 29.88 841 24.83 1.9 35.5 63 -4.3 24.3
02:20 1012 29.88 841 24.83 1.8 35.3 64 -4.3 24.2
02:25 1012 29.88 841 24.83 1.8 35.3 64 -4.2 24.4
02:30 1012 29.88 841 24.83 1.8 35.3 62 -4.6 23.7
02:35 1012 29.88 842 24.86 2 35.5 61 -4.7 23.6
02:40 1013 29.91 842 24.86 1.9 35.5 63 -4.4 24.2
02:45 1013 29.91 842 24.86 1.9 35.4 62 -4.6 23.7
02:50 1013 29.91 842 24.86 1.9 35.4 62 -4.6 23.7
02:55 1013 29.91 842 24.86 2 35.6 60 -5.1 22.9
03:00 1013 29.91 842 24.86 2.3 36.1 58 -5.2 22.6
03:05 1013 29.91 842 24.86 2.4 36.4 56 -5.4 22.3
03:10 1013 29.91 842 24.86 2.5 36.6 56 -5.4 22.3
03:15 1013 29.91 842 24.86 2.5 36.6 55 -5.6 22
03:20 1013 29.91 843 24.89 2.6 36.7 55 -5.6 21.8
03:25 1013 29.91 843 24.89 2.6 36.7 54 -5.7 21.8
03:30 1013 29.91 843 24.89 2.6 36.7 55 -5.6 21.8
03:35 1013 29.91 843 24.89 2.6 36.6 53 -6 21.2
03:40 1013 29.91 843 24.89 2.8 37 52 -6.2 20.8
03:45 1013 29.91 843 24.89 2.8 37 52 -6.2 20.8
03:50 1014 29.94 843 24.89 2.7 36.8 53 -6 21.1
03:55 1014 29.94 843 24.89 2.6 36.7 54 -5.8 21.5
04:00 1014 29.94 843 24.89 2.4 36.4 55 -5.7 21.7
04:05 1014 29.94 843 24.89 2.3 36.2 56 -5.5 22
04:10 1014 29.94 843 24.89 2.3 36.1 55 -5.8 21.6
04:15 1014 29.94 843 24.89 2.3 36.1 55 -5.9 21.5
04:20 1014 29.94 843 24.89 2.2 36 54 -6 21.1
04:25 1014 29.94 843 24.89 2.3 36.2 54 -6 21.3
04:30 1014 29.94 843 24.89 2.2 36 55 -6 21.2
04:35 1014 29.94 843 24.89 2.2 36 55 -6 21.2
04:40 1014 29.94 843 24.89 2.3 36.1 54 -6.2 20.9
04:45 1014 29.94 844 24.92 2.3 36.1 52 -6.6 20.2
04:50 1014 29.94 844 24.92 2.4 36.3 52 -6.4 20.6
04:55 1015 29.97 844 24.92 2.4 36.3 51 -6.7 19.9
05:00 1015 29.97 844 24.92 2.5 36.4 52 -6.5 20.3
05:05 1015 29.97 844 24.92 2.4 36.4 52 -6.5 20.4
05:10 1015 29.97 844 24.92 2.3 36.2 52 -6.6 20.2
05:15 1015 29.97 844 24.92 2.3 36.2 52 -6.5 20.2
05:20 1015 29.97 844 24.92 2.3 36.1 53 -6.4 20.5
05:25 1015 29.97 844 24.92 2.2 36 52 -6.5 20.3
05:30 1015 29.97 844 24.92 2.2 36 53 -6.3 20.7
05:35 1015 29.97 845 24.95 2.2 36 53 -6.4 20.6
05:40 1016 30 845 24.95 2.3 36.1 54 -6.1 21
05:45 1016 30 845 24.95 2.2 35.9 54 -6.3 20.7
05:50 1016 30 845 24.95 2.2 36 52 -6.5 20.3
05:55 1016 30 845 24.95 2.3 36.1 53 -6.4 20.5
06:00 1016 30 845 24.95 2.3 36.1 54 -6.2 20.8
06:05 1016 30 845 24.95 2.2 35.9 53 -6.4 20.5
06:10 1016 30 845 24.95 2.2 35.9 54 -6.1 20.9
06:15 1016 30 845 24.95 2.1 35.9 54 -6.2 20.9
06:20 1016 30 845 24.95 2.1 35.7 53 -6.6 20.1
06:25 1016 30 845 24.95 2.2 35.9 53 -6.5 20.3
06:30 1016 30 845 24.95 2.2 35.9 52 -6.6 20.2
06:35 1016 30 845 24.95 2.2 35.9 52 -6.6 20.2
06:40 1016 30 845 24.95 2.1 35.7 53 -6.6 20.2
06:45 1016 30 845 24.95 2 35.7 53 -6.7 20
06:50 1016 30 845 24.95 2 35.5 53 -6.7 19.9
06:55 1016 30 845 24.95 1.9 35.4 52 -6.9 19.6
07:00 1016 30 845 24.95 1.9 35.5 51 -7.1 19.2
07:05 1016 30 845 24.95 1.9 35.4 51 -7.1 19.3
07:10 1016 30 845 24.95 1.9 35.4 50 -7.3 18.8
07:15 1016 30 845 24.95 1.9 35.4 51 -7.2 19
07:20 1016 30 846 24.98 1.9 35.4 51 -7.2 19
07:25 1016 30 846 24.98 1.9 35.5 51 -7.3 18.9
07:30 1016 30 846 24.98 1.9 35.4 51 -7.1 19.2
07:35 1016 30 846 24.98 2 35.6 50 -7.5 18.5
07:40 1016 30 846 24.98 2.3 36.1 49 -7.4 18.8
07:45 1017 30.03 846 24.98 2.5 36.5 49 -7.3 18.9
07:50 1017 30.03 846 24.98 2.3 36.2 50 -7 19.4
07:55 1017 30.03 846 24.98 2.1 35.8 51 -6.9 19.5
08:00 1017 30.03 846 24.98 2 35.7 50 -7.2 19
08:05 1017 30.03 846 24.98 2.3 36.1 49 -7.4 18.7
08:10 1017 30.03 846 24.98 2.6 36.7 47 -7.5 18.4
08:15 1017 30.03 846 24.98 2.8 37 47 -7.4 18.7
08:20 1017 30.03 846 24.98 2.9 37.2 49 -6.8 19.7
08:25 1017 30.03 847 25.01 3.1 37.5 49 -6.7 20
08:30 1018 30.06 847 25.01 3.2 37.7 49 -6.7 20
08:35 1018 30.06 847 25.01 3.2 37.8 47 -6.9 19.6
08:40 1018 30.06 847 25.01 3.3 38 47 -6.9 19.6
08:45 1018 30.06 847 25.01 3.3 37.9 45 -7.7 18.2
08:50 1018 30.06 847 25.01 3.2 37.8 46 -7.4 18.6
08:55 1018 30.06 847 25.01 3.2 37.8 48 -6.7 20
09:00 1018 30.06 847 25.01 3 37.4 54 -5.4 22.3
09:05 1018 30.06 847 25.01 2.4 36.3 56 -5.5 22.1
09:10 1018 30.06 848 25.04 2.3 36.2 57 -5.3 22.5
09:15 1018 30.06 848 25.04 2.3 36.2 57 -5.3 22.5
09:20 1019 30.09 848 25.04 2.4 36.4 57 -5.3 22.5
09:25 1019 30.09 848 25.04 2.8 37 54 -5.7 21.7
09:30 1019 30.09 848 25.04 3.3 38 47 -7 19.5
09:35 1019 30.09 848 25.04 3.8 38.9 42 -7.8 17.9
09:40 1019 30.09 848 25.04 4.4 39.9 46 -6.2 20.9
09:45 1019 30.09 848 25.04 4.7 40.4 46 -6 21.2
09:50 1019 30.09 848 25.04 5 41 44 -6.4 20.5
09:55 1019 30.09 848 25.04 5 41.1 43 -6.6 20.1
10:00 1019 30.09 848 25.04 5.5 41.9 41 -6.7 19.9
10:05 1019 30.09 848 25.04 5.8 42.4 39 -7 19.5
10:10 1019 30.09 848 25.04 6.1 42.9 39 -6.9 19.5
10:15 1019 30.09 848 25.04 6.1 43 38 -7.2 19.1
10:20 1019 30.09 848 25.04 6 42.9 35 -8.3 17
10:25 1019 30.09 848 25.04 5.5 42 35 -8.8 16.1
10:30 1019 30.09 848 25.04 5.3 41.5 38 -8 17.7
10:35 1019 30.09 848 25.04 5.6 42.1 38 -7.8 18
10:40 1019 30.09 848 25.04 5.8 42.4 35 -8.6 16.6
10:45 1019 30.09 848 25.04 6 42.8 35 -8.3 17
10:50 1019 30.09 848 25.04 6.1 43 35 -8.1 17.5
10:55 1019 30.09 848 25.04 6.5 43.6 33 -8.6 16.6
11:00 1019 30.09 848 25.04 6.9 44.4 33 -8.3 17.1
11:05 1019 30.09 848 25.04 7.4 45.4 33 -7.7 18.2
11:10 1019 30.09 848 25.04 6.5 43.7 35 -8 17.7
11:15 1019 30.09 848 25.04 6.8 44.2 33 -8.3 17.1
11:20 1019 30.09 848 25.04 7.2 44.9 31 -8.8 16.1
11:25 1019 30.09 848 25.04 7.1 44.8 31 -8.9 16
11:30 1019 30.09 848 25.04 6.6 43.9 31 -9.2 15.4
11:35 1019 30.09 848 25.04 7.1 44.7 33 -8.2 17.2
11:40 1019 30.09 849 25.07 7.4 45.3 31 -8.8 16.2
11:45 1019 30.09 849 25.07 6.9 44.4 30 -9.6 14.8
11:50 1019 30.09 849 25.07 6.6 43.9 31 -9.4 15
11:55 1019 30.09 849 25.07 7 44.6 30 -9.5 14.8
12:00 1019 30.09 849 25.07 7.8 46 28 -9.7 14.6
12:05 1019 30.09 849 25.07 8.1 46.7 30 -8.6 16.5
12:10 1019 30.09 849 25.07 7.1 44.8 30 -9.2 15.5
12:15 1019 30.09 849 25.07 7.4 45.2 29 -9.6 14.7
12:20 1019 30.09 848 25.04 7.6 45.6 29 -9.4 15
12:25 1019 30.09 848 25.04 7.3 45.1 29 -9.6 14.8
12:30 1019 30.09 848 25.04 7.7 45.9 31 -8.5 16.8
12:35 1019 30.09 848 25.04 7.9 46.1 29 -9.3 15.3
12:40 1019 30.09 848 25.04 7.7 45.9 28 -9.5 14.9
12:45 1019 30.09 848 25.04 8.1 46.5 28 -9.6 14.8
12:50 1019 30.09 848 25.04 8.4 47 28 -9.1 15.6
12:55 1019 30.09 848 25.04 8.5 47.4 27 -9.3 15.2
13:00 1019 30.09 848 25.04 8.4 47 26 -10.1 13.8
13:05 1019 30.09 848 25.04 8.3 46.9 27 -9.4 15
13:10 1019 30.09 848 25.04 8.4 47.1 27 -9.8 14.4
13:15 1019 30.09 848 25.04 8.4 47.1 28 -9.1 15.6
13:20 1019 30.09 848 25.04 8.5 47.2 27 -9.4 15.1
13:25 1019 30.09 848 25.04 8.4 47.1 27 -9.5 14.9
13:30 1019 30.09 848 25.04 8.5 47.3 28 -9.2 15.5
13:35 1019 30.09 848 25.04 8.8 47.8 27 -9.4 15.2
13:40 1019 30.09 848 25.04 8.7 47.7 27 -9.2 15.5
13:45 1018 30.06 848 25.04 8.9 48 27 -9.4 15.1
13:50 1018 30.06 848 25.04 8.6 47.4 27 -9.3 15.2
13:55 1018 30.06 848 25.04 8.5 47.2 26 -9.7 14.5
14:00 1018 30.06 848 25.04 8.3 47 29 -8.8 16.1
14:05 1018 30.06 848 25.04 8.5 47.3 29 -8.5 16.6
14:10 1018 30.06 848 25.04 8.6 47.4 28 -8.9 16
14:15 1018 30.06 848 25.04 8.5 47.3 27 -9.3 15.3
14:20 1018 30.06 847 25.01 8.6 47.4 28 -8.7 16.3
14:25 1018 30.06 847 25.01 8.6 47.5 27 -9.2 15.5
14:30 1018 30.06 847 25.01 8.7 47.7 28 -8.8 16.2
14:35 1018 30.06 847 25.01 9 48.1 27 -8.9 16
14:40 1018 30.06 847 25.01 8.9 47.9 27 -9 15.9
14:45 1018 30.06 847 25.01 8.4 47 29 -8.5 16.7
14:50 1018 30.06 847 25.01 8.3 46.9 28 -9 15.8
14:55 1018 30.06 847 25.01 8.2 46.8 28 -9.4 15
15:00 1018 30.06 847 25.01 8.4 47.1 28 -9.2 15.4
15:05 1018 30.06 847 25.01 8.5 47.4 28 -8.9 16
15:10 1018 30.06 847 25.01 8.6 47.5 26 -9.6 14.7
15:15 1018 30.06 847 25.01 8.8 47.8 26 -9.5 15
15:20 1018 30.06 847 25.01 9 48.2 27 -9.1 15.7
15:25 1018 30.06 847 25.01 9 48.1 26 -9.4 15
15:30 1018 30.06 847 25.01 8.8 47.9 27 -9.2 15.4
15:35 1018 30.06 847 25.01 8.8 47.8 26 -9.6 14.7
15:40 1018 30.06 847 25.01 8.8 47.9 27 -9.3 15.2
15:45 1018 30.06 847 25.01 8.8 47.8 27 -9.2 15.4
15:50 1018 30.06 847 25.01 8.8 47.8 26 -9.5 14.9
15:55 1018 30.06 847 25.01 8.6 47.5 28 -8.9 16
16:00 1018 30.06 847 25.01 8.6 47.5 28 -9 15.8
16:05 1018 30.06 847 25.01 8.6 47.5 28 -8.9 15.9
16:10 1018 30.06 847 25.01 8.8 47.8 28 -8.7 16.3
16:15 1018 30.06 847 25.01 8.9 48.1 27 -9 15.7
16:20 1018 30.06 847 25.01 8.7 47.6 28 -8.8 16.2
16:25 1018 30.06 847 25.01 8.6 47.4 30 -8 17.6
16:30 1018 30.06 847 25.01 8.7 47.6 29 -8.4 16.9
16:35 1018 30.06 847 25.01 8.6 47.6 29 -8.6 16.5
16:40 1018 30.06 847 25.01 8.7 47.7 29 -8.4 16.8
16:45 1018 30.06 847 25.01 8.6 47.4 28 -8.8 16.2
16:50 1018 30.06 847 25.01 8.4 47.2 28 -9 15.9
16:55 1018 30.06 847 25.01 8.3 46.9 28 -9.4 15.2
17:00 1018 30.06 847 25.01 8.1 46.6 27 -9.8 14.3
17:05 1018 30.06 847 25.01 7.9 46.2 28 -9.5 15
17:10 1018 30.06 847 25.01 7.8 46 28 -9.6 14.7
17:15 1018 30.06 847 25.01 7.9 46.2 28 -9.5 14.9
17:20 1018 30.06 847 25.01 7.9 46.3 28 -9.5 14.9
17:25 1018 30.06 847 25.01 7.6 45.8 28 -9.7 14.6
17:30 1018 30.06 847 25.01 7.5 45.4 29 -9.4 15
17:35 1018 30.06 847 25.01 7.4 45.3 29 -9.5 14.9
17:40 1018 30.06 847 25.01 7.3 45.1 30 -9 15.8
17:45 1018 30.06 847 25.01 7.3 45.2 31 -8.8 16.1
17:50 1018 30.06 847 25.01 7 44.6 32 -8.7 16.3
17:55 1018 30.06 848 25.04 6.7 44 33 -8.4 16.9
18:00 1018 30.06 848 25.04 6.3 43.3 35 -8.2 17.2
18:05 1018 30.06 848 25.04 6.1 43 36 -7.9 17.8
18:10 1018 30.06 848 25.04 5.6 42.2 41 -6.7 20
18:15 1018 30.06 848 25.04 4.9 40.9 43 -6.5 20.2
18:20 1018 30.06 848 25.04 4.5 40.1 44 -6.8 19.8
18:25 1018 30.06 848 25.04 4.5 40 43 -7.2 19.1
18:30 1018 30.06 848 25.04 4.2 39.6 41 -7.8 18
18:35 1018 30.06 848 25.04 4.4 40 40 -8 17.6
18:40 1018 30.06 848 25.04 3.9 38.9 45 -6.9 19.6
18:45 1018 30.06 848 25.04 3.8 38.8 44 -7.4 18.6
18:50 1019 30.09 848 25.04 3.7 38.6 45 -7.3 18.9
18:55 1019 30.09 848 25.04 3.3 38 44 -7.8 18
19:00 1019 30.09 848 25.04 3.1 37.6 47 -7.2 19
19:05 1019 30.09 848 25.04 3.1 37.5 46 -7.4 18.6
19:10 1019 30.09 848 25.04 2.8 37.1 48 -7.1 19.2
19:15 1019 30.09 848 25.04 2.5 36.5 47 -7.7 18.1
19:20 1019 30.09 848 25.04 2.7 36.9 44 -8.2 17.2
19:25 1019 30.09 848 25.04 2.7 36.9 42 -8.9 15.9
19:30 1019 30.09 848 25.04 2.5 36.6 44 -8.5 16.8
19:35 1019 30.09 848 25.04 2.3 36.1 45 -8.6 16.5
19:40 1019 30.09 848 25.04 2.3 36.2 46 -8.2 17.3
19:45 1019 30.09 848 25.04 2.2 35.9 46 -8.2 17.2
19:50 1019 30.09 848 25.04 2.1 35.8 47 -8.1 17.4
19:55 1019 30.09 848 25.04 1.9 35.4 47 -8.2 17.2
20:00 1019 30.09 848 25.04 1.6 35 48 -8.2 17.3
20:05 1019 30.09 848 25.04 1.5 34.6 50 -8 17.7
20:10 1019 30.09 848 25.04 1.2 34.2 50 -8 17.6
20:15 1019 30.09 848 25.04 1.1 34.1 51 -7.9 17.8
20:20 1019 30.09 848 25.04 1.1 33.9 52 -7.8 17.9
20:25 1019 30.09 848 25.04 1 33.9 51 -7.9 17.8
20:30 1019 30.09 848 25.04 1 33.8 51 -8 17.7
20:35 1019 30.09 848 25.04 1 33.8 51 -8.1 17.4
20:40 1019 30.09 848 25.04 1.2 34.1 49 -8.4 16.9
20:45 1019 30.09 848 25.04 1.2 34.2 49 -8.3 17.1
20:50 1019 30.09 848 25.04 1 33.9 51 -8.1 17.5
20:55 1019 30.09 848 25.04 0.8 33.4 51 -8.2 17.3
21:00 1019 30.09 848 25.04 0.4 32.7 52 -8.5 16.8
21:05 1019 30.09 848 25.04 0.3 32.6 52 -8.4 16.9
21:10 1019 30.09 848 25.04 0.5 33 51 -8.6 16.6
21:15 1019 30.09 848 25.04 0.6 33.1 51 -8.5 16.7
21:20 1019 30.09 848 25.04 0.7 33.3 50 -8.6 16.6
21:25 1019 30.09 848 25.04 0.7 33.2 50 -8.5 16.6
21:30 1019 30.09 848 25.04 0.5 32.9 52 -8.3 17
21:35 1019 30.09 848 25.04 0.4 32.7 51 -8.5 16.6
21:40 1019 30.09 848 25.04 0.3 32.6 52 -8.5 16.7
21:45 1019 30.09 848 25.04 0.2 32.4 51 -8.8 16.2
21:50 1019 30.09 848 25.04 0.3 32.6 50 -8.9 16.1
21:55 1019 30.09 848 25.04 0.1 32.2 51 -8.8 16.1
22:00 1019 30.09 848 25.04 0 32 52 -8.8 16.2
22:05 1019 30.09 848 25.04 -0.1 31.7 51 -9.1 15.6
22:10 1019 30.09 848 25.04 -0.2 31.6 52 -9 15.8
22:15 1019 30.09 848 25.04 -0.2 31.6 51 -9.1 15.7
22:20 1019 30.09 848 25.04 -0.1 31.9 51 -9.1 15.5
22:25 1019 30.09 848 25.04 -0.1 31.9 51 -9 15.7
22:30 1019 30.09 848 25.04 0 32 51 -8.9 15.9
22:35 1019 30.09 848 25.04 -0 31.9 50 -9.2 15.5
22:40 1019 30.09 848 25.04 -0.2 31.6 50 -9.4 15.1
22:45 1019 30.09 849 25.07 -0.5 31.1 51 -9.5 14.9
22:50 1019 30.09 849 25.07 -0.7 30.7 52 -9.5 14.9
22:55 1019 30.09 849 25.07 -0.8 30.6 51 -9.6 14.7
23:00 1019 30.09 848 25.04 -0.8 30.6 51 -9.6 14.6
23:05 1019 30.09 848 25.04 -0.9 30.5 51 -9.7 14.6
23:10 1019 30.09 848 25.04 -0.8 30.6 51 -9.6 14.8
23:15 1019 30.09 848 25.04 -0.7 30.8 50 -9.9 14.2
23:20 1019 30.09 848 25.04 -0.9 30.4 50 -10 13.9
23:25 1019 30.09 848 25.04 -1.1 30 51 -9.9 14.1
23:30 1019 30.09 848 25.04 -1.4 29.6 52 -10.1 13.9
23:35 1019 30.09 848 25.04 -1.6 29.1 53 -10 14
23:40 1019 30.09 848 25.04 -1.8 28.8 53 -10.1 13.9
23:45 1019 30.09 848 25.04 -1.6 29.2 52 -10.2 13.6
23:50 1019 30.09 848 25.04 -1.5 29.3 51 -10.3 13.4
23:55 1019 30.09 848 25.04 -1.4 29.4 50 -10.6 13
24:00 1019 30.09 848 25.04 -1.5 29.3 49 -10.8 12.5